This is the latest recevied weather packets stored in our database for station/object K5VP. If no packets are shown the sender has not sent any weather packets the latest 10 day(s).
| Time | Temp. | Humidity | Pressure | Rain* | Wind** | Luminosity | Snow |
|---|---|---|---|---|---|---|---|
| 1778021084 | 17.22° C | 93% | 1008.9 hPa | 1.27 mm | - | - | - |
| 1778020699 | 17.22° C | 93% | 1008.9 hPa | 0 mm | - | - | - |
| 1778020327 | 17.22° C | 93% | 1009 hPa | 0 mm | - | - | - |
| 1778019930 | 17.22° C | 93% | 1008.9 hPa | 0 mm | - | - | - |
| 1778019552 | 17.22° C | 93% | 1009 hPa | 0 mm | - | - | - |
| 1778019162 | 17.22° C | 92% | 1009 hPa | 0 mm | - | - | - |
| 1778018780 | 17.22° C | 92% | 1009 hPa | 0 mm | - | - | - |
| 1778018402 | 17.22° C | 92% | 1008.9 hPa | 0 mm | - | - | - |
| 1778018024 | 17.22° C | 91% | 1009 hPa | 0 mm | - | - | - |
| 1778017648 | 17.22° C | 91% | 1009.1 hPa | 0 mm | - | - | - |
| 1778017281 | 17.22° C | 90% | 1009.1 hPa | 0 mm | - | - | - |
| 1778016897 | 17.78° C | 89% | 1009.2 hPa | 0 mm | - | - | - |
| 1778016515 | 17.78° C | 88% | 1009.2 hPa | 0 mm | - | - | - |
| 1778016130 | 18.33° C | 87% | 1009.3 hPa | 0 mm | - | - | - |
| 1778015746 | 18.33° C | 85% | 1009.2 hPa | 0 mm | - | - | - |
| 1778015371 | 18.89° C | 82% | 1009.2 hPa | 0 mm | - | - | - |
| 1778014977 | 20° C | 79% | 1009.1 hPa | 0 mm | - | - | - |
| 1778014599 | 20.56° C | 78% | 1008.9 hPa | 0 mm | - | - | - |
| 1778014230 | 20.56° C | 75% | 1008.9 hPa | 0 mm | - | - | - |
| 1778013846 | 21.11° C | 74% | 1008.8 hPa | 0 mm | - | - | - |
| 1778013478 | 21.67° C | 72% | 1008.8 hPa | 0 mm | - | - | - |
| 1778013082 | 22.22° C | 72% | 1008.9 hPa | 0 mm | - | - | - |
| 1777996145 | 15° C | 93% | 1010.6 hPa | 0 mm | - | - | - |
| 1777943218 | 21.11° C | 53% | 1009.9 hPa | 0 mm | - | - | - |
| 1777942827 | 21.67° C | 52% | 1009.9 hPa | 0 mm | - | - | - |
* Rain latest hour (hover to see other rain measurements)
** Current wind speed in m/s (hover to see current wind gust speed)